sensor_id;sensor_type;location;lat;lon;timestamp;pressure;altitude;pressure_sealevel;temperature;humidity
52249;BME280;38541;48.130;8.378;2023-05-09T00:01:58;93064.16;;;13.55;80.33
52249;BME280;38541;48.130;8.378;2023-05-09T00:04:25;93061.25;;;13.57;80.41
52249;BME280;38541;48.130;8.378;2023-05-09T00:06:52;93058.63;;;13.52;80.55
52249;BME280;38541;48.130;8.378;2023-05-09T00:09:18;93053.38;;;13.47;80.88
52249;BME280;38541;48.130;8.378;2023-05-09T00:11:45;93042.81;;;13.41;80.92
52249;BME280;38541;48.130;8.378;2023-05-09T00:14:11;93047.84;;;13.43;81.21
52249;BME280;38541;48.130;8.378;2023-05-09T00:16:39;93041.50;;;13.44;80.62
52249;BME280;38541;48.130;8.378;2023-05-09T00:19:06;93035.72;;;13.47;80.60
52249;BME280;38541;48.130;8.378;2023-05-09T00:21:32;93039.38;;;13.51;80.74
52249;BME280;38541;48.130;8.378;2023-05-09T00:23:59;93038.56;;;13.56;80.30
52249;BME280;38541;48.130;8.378;2023-05-09T00:26:26;93034.34;;;13.55;80.51
52249;BME280;38541;48.130;8.378;2023-05-09T00:28:53;93033.78;;;13.58;80.43
52249;BME280;38541;48.130;8.378;2023-05-09T00:31:20;93025.31;;;13.61;80.66
52249;BME280;38541;48.130;8.378;2023-05-09T00:33:46;93027.44;;;13.59;80.75
52249;BME280;38541;48.130;8.378;2023-05-09T00:36:13;93015.88;;;13.55;80.83
52249;BME280;38541;48.130;8.378;2023-05-09T00:38:40;93013.25;;;13.50;81.72
52249;BME280;38541;48.130;8.378;2023-05-09T00:41:06;93009.53;;;13.51;82.39
52249;BME280;38541;48.130;8.378;2023-05-09T00:43:33;93011.09;;;13.57;82.22
52249;BME280;38541;48.130;8.378;2023-05-09T00:46:00;93004.75;;;13.58;81.64
52249;BME280;38541;48.130;8.378;2023-05-09T00:48:26;93006.88;;;13.56;81.53
52249;BME280;38541;48.130;8.378;2023-05-09T00:50:53;92999.47;;;13.58;81.90
52249;BME280;38541;48.130;8.378;2023-05-09T00:53:19;93004.97;;;13.62;82.18
52249;BME280;38541;48.130;8.378;2023-05-09T00:55:46;93004.47;;;13.65;81.74
52249;BME280;38541;48.130;8.378;2023-05-09T00:58:12;92999.44;;;13.63;81.72
52249;BME280;38541;48.130;8.378;2023-05-09T01:00:39;93001.53;;;13.66;81.95
52249;BME280;38541;48.130;8.378;2023-05-09T01:03:06;93000.97;;;13.69;81.78
52249;BME280;38541;48.130;8.378;2023-05-09T01:05:42;93008.94;;;13.64;80.96
52249;BME280;38541;48.130;8.378;2023-05-09T01:10:58;92998.22;;;13.40;81.16
52249;BME280;38541;48.130;8.378;2023-05-09T01:13:31;92994.03;;;13.34;81.22
52249;BME280;38541;48.130;8.378;2023-05-09T01:16:54;92987.66;;;13.40;81.99
52249;BME280;38541;48.130;8.378;2023-05-09T01:21:36;92985.78;;;13.51;81.39
52249;BME280;38541;48.130;8.378;2023-05-09T01:27:14;92986.63;;;13.46;81.14
52249;BME280;38541;48.130;8.378;2023-05-09T01:29:47;92986.88;;;13.45;81.16
52249;BME280;38541;48.130;8.378;2023-05-09T01:32:18;92976.88;;;13.31;81.23
52249;BME280;38541;48.130;8.378;2023-05-09T01:34:48;92979.03;;;13.29;81.72
52249;BME280;38541;48.130;8.378;2023-05-09T01:37:18;92978.16;;;13.49;80.89
52249;BME280;38541;48.130;8.378;2023-05-09T01:39:50;92979.47;;;13.41;80.78
52249;BME280;38541;48.130;8.378;2023-05-09T01:42:19;92981.09;;;13.37;81.04
52249;BME280;38541;48.130;8.378;2023-05-09T01:44:46;92973.19;;;13.37;80.76
52249;BME280;38541;48.130;8.378;2023-05-09T01:47:14;92971.56;;;13.41;81.04
52249;BME280;38541;48.130;8.378;2023-05-09T01:49:42;92972.09;;;13.44;80.76
52249;BME280;38541;48.130;8.378;2023-05-09T01:52:12;92974.75;;;13.44;80.27
52249;BME280;38541;48.130;8.378;2023-05-09T01:54:40;92976.03;;;13.41;80.26
52249;BME280;38541;48.130;8.378;2023-05-09T01:57:10;92972.63;;;13.40;80.42
52249;BME280;38541;48.130;8.378;2023-05-09T01:59:40;92967.34;;;13.40;80.42
52249;BME280;38541;48.130;8.378;2023-05-09T02:02:08;92964.97;;;13.39;80.23
52249;BME280;38541;48.130;8.378;2023-05-09T02:04:35;92962.88;;;13.36;80.43
52249;BME280;38541;48.130;8.378;2023-05-09T02:07:04;92970.81;;;13.36;80.37
52249;BME280;38541;48.130;8.378;2023-05-09T02:09:31;92963.44;;;13.33;80.25
52249;BME280;38541;48.130;8.378;2023-05-09T02:11:57;92957.91;;;13.29;80.69
52249;BME280;38541;48.130;8.378;2023-05-09T02:14:24;92954.72;;;13.32;80.45
52249;BME280;38541;48.130;8.378;2023-05-09T02:16:51;92955.28;;;13.29;79.61
52249;BME280;38541;48.130;8.378;2023-05-09T02:19:19;92954.81;;;13.17;79.71
52249;BME280;38541;48.130;8.378;2023-05-09T02:21:46;92946.38;;;13.20;79.98
52249;BME280;38541;48.130;8.378;2023-05-09T02:24:13;92946.84;;;13.27;80.07
52249;BME280;38541;48.130;8.378;2023-05-09T02:26:40;92942.31;;;13.33;80.06
52249;BME280;38541;48.130;8.378;2023-05-09T02:29:06;92939.94;;;13.36;79.84
52249;BME280;38541;48.130;8.378;2023-05-09T02:31:34;92943.88;;;13.39;80.02
52249;BME280;38541;48.130;8.378;2023-05-09T02:34:02;92944.38;;;13.41;80.03
52249;BME280;38541;48.130;8.378;2023-05-09T02:36:30;92944.69;;;13.34;79.55
52249;BME280;38541;48.130;8.378;2023-05-09T02:38:59;92934.16;;;13.29;80.10
52249;BME280;38541;48.130;8.378;2023-05-09T02:41:28;92941.56;;;13.27;80.47
52249;BME280;38541;48.130;8.378;2023-05-09T02:43:55;92948.72;;;13.26;80.77
52249;BME280;38541;48.130;8.378;2023-05-09T02:46:21;92945.78;;;13.28;80.65
52249;BME280;38541;48.130;8.378;2023-05-09T02:48:48;92941.31;;;13.29;80.54
52249;BME280;38541;48.130;8.378;2023-05-09T02:51:15;92939.94;;;13.31;80.68
52249;BME280;38541;48.130;8.378;2023-05-09T02:53:42;92932.03;;;13.31;80.73
52249;BME280;38541;48.130;8.378;2023-05-09T02:56:08;92937.31;;;13.31;80.88
52249;BME280;38541;48.130;8.378;2023-05-09T02:58:36;92946.00;;;13.37;80.95
52249;BME280;38541;48.130;8.378;2023-05-09T03:01:03;92937.31;;;13.36;80.90
52249;BME280;38541;48.130;8.378;2023-05-09T03:03:29;92926.19;;;13.34;81.02
52249;BME280;38541;48.130;8.378;2023-05-09T03:06:01;92931.00;;;13.27;81.57
52249;BME280;38541;48.130;8.378;2023-05-09T03:08:27;92921.00;;;13.24;82.17
52249;BME280;38541;48.130;8.378;2023-05-09T03:10:54;92918.38;;;13.24;82.36
52249;BME280;38541;48.130;8.378;2023-05-09T03:13:21;92924.66;;;13.28;82.21
52249;BME280;38541;48.130;8.378;2023-05-09T03:15:47;92919.94;;;13.25;82.53
52249;BME280;38541;48.130;8.378;2023-05-09T03:18:14;92914.66;;;13.25;82.24
52249;BME280;38541;48.130;8.378;2023-05-09T03:20:40;92923.34;;;13.25;82.29
52249;BME280;38541;48.130;8.378;2023-05-09T03:23:07;92918.38;;;13.24;82.14
52249;BME280;38541;48.130;8.378;2023-05-09T03:25:35;92911.53;;;13.23;82.66
52249;BME280;38541;48.130;8.378;2023-05-09T03:28:02;92911.78;;;13.26;82.62
52249;BME280;38541;48.130;8.378;2023-05-09T03:30:28;92914.63;;;13.30;82.55
52249;BME280;38541;48.130;8.378;2023-05-09T03:32:56;92913.31;;;13.33;82.33
52249;BME280;38541;48.130;8.378;2023-05-09T03:35:22;92910.91;;;13.36;82.49
52249;BME280;38541;48.130;8.378;2023-05-09T03:37:49;92907.72;;;13.34;81.94
52249;BME280;38541;48.130;8.378;2023-05-09T03:40:15;92904.63;;;13.27;82.60
52249;BME280;38541;48.130;8.378;2023-05-09T03:42:48;92907.78;;;13.29;82.58
52249;BME280;38541;48.130;8.378;2023-05-09T03:45:15;92903.25;;;13.35;82.63
52249;BME280;38541;48.130;8.378;2023-05-09T03:47:43;92911.94;;;13.35;82.23
52249;BME280;38541;48.130;8.378;2023-05-09T03:50:10;92899.28;;;13.37;82.77
52249;BME280;38541;48.130;8.378;2023-05-09T03:52:37;92909.84;;;13.37;82.96
52249;BME280;38541;48.130;8.378;2023-05-09T03:55:05;92911.63;;;13.42;82.62
52249;BME280;38541;48.130;8.378;2023-05-09T03:57:34;92908.78;;;13.44;82.57
52249;BME280;38541;48.130;8.378;2023-05-09T04:00:02;92920.41;;;13.37;82.03
52249;BME280;38541;48.130;8.378;2023-05-09T04:02:39;92921.97;;;13.38;82.93
52249;BME280;38541;48.130;8.378;2023-05-09T04:05:07;92916.69;;;13.38;82.90
52249;BME280;38541;48.130;8.378;2023-05-09T04:07:36;92921.97;;;13.38;82.83
52249;BME280;38541;48.130;8.378;2023-05-09T04:10:03;92913.78;;;13.40;82.76
52249;BME280;38541;48.130;8.378;2023-05-09T04:12:31;92909.81;;;13.43;82.92
52249;BME280;38541;48.130;8.378;2023-05-09T04:14:58;92911.91;;;13.46;82.97
52249;BME280;38541;48.130;8.378;2023-05-09T04:17:25;92904.81;;;13.46;83.01
52249;BME280;38541;48.130;8.378;2023-05-09T04:19:51;92913.22;;;13.48;83.00
52249;BME280;38541;48.130;8.378;2023-05-09T04:22:18;92909.78;;;13.48;82.96
52249;BME280;38541;48.130;8.378;2023-05-09T04:24:44;92909.53;;;13.49;82.86
52249;BME280;38541;48.130;8.378;2023-05-09T04:27:11;92906.09;;;13.49;82.65
52249;BME280;38541;48.130;8.378;2023-05-09T04:29:39;92906.88;;;13.49;82.65
52249;BME280;38541;48.130;8.378;2023-05-09T04:32:06;92906.88;;;13.49;82.68
52249;BME280;38541;48.130;8.378;2023-05-09T04:34:33;92906.59;;;13.51;82.57
52249;BME280;38541;48.130;8.378;2023-05-09T04:37:05;92910.28;;;13.55;82.53
52249;BME280;38541;48.130;8.378;2023-05-09T04:39:32;92908.16;;;13.57;82.48
52249;BME280;38541;48.130;8.378;2023-05-09T04:42:06;92909.72;;;13.58;82.39
52249;BME280;38541;48.130;8.378;2023-05-09T04:44:32;92911.81;;;13.61;82.59
52249;BME280;38541;48.130;8.378;2023-05-09T04:47:01;92911.81;;;13.61;82.20
52249;BME280;38541;48.130;8.378;2023-05-09T04:49:27;92916.84;;;13.58;82.16
52249;BME280;38541;48.130;8.378;2023-05-09T04:51:55;92908.69;;;13.54;81.62
52249;BME280;38541;48.130;8.378;2023-05-09T04:54:21;92910.81;;;13.52;81.74
52249;BME280;38541;48.130;8.378;2023-05-09T04:56:51;92914.56;;;13.40;81.92
52249;BME280;38541;48.130;8.378;2023-05-09T04:59:21;92909.00;;;13.47;82.63
52249;BME280;38541;48.130;8.378;2023-05-09T05:01:48;92906.59;;;13.51;82.19
52249;BME280;38541;48.130;8.378;2023-05-09T05:04:15;92905.56;;;13.47;81.96
52249;BME280;38541;48.130;8.378;2023-05-09T05:06:41;92905.00;;;13.55;82.00
52249;BME280;38541;48.130;8.378;2023-05-09T05:09:08;92910.28;;;13.50;81.52
52249;BME280;38541;48.130;8.378;2023-05-09T05:11:35;92903.09;;;13.61;82.04
52249;BME280;38541;48.130;8.378;2023-05-09T05:14:03;92908.28;;;13.71;81.44
52249;BME280;38541;48.130;8.378;2023-05-09T05:16:29;92895.84;;;13.77;80.44
52249;BME280;38541;48.130;8.378;2023-05-09T05:18:56;92899.44;;;13.86;80.28
52249;BME280;38541;48.130;8.378;2023-05-09T05:21:23;92902.28;;;13.95;79.72
52249;BME280;38541;48.130;8.378;2023-05-09T05:23:50;92899.56;;;14.00;80.12
52249;BME280;38541;48.130;8.378;2023-05-09T05:26:17;92896.56;;;14.12;79.45
52249;BME280;38541;48.130;8.378;2023-05-09T05:28:43;92891.50;;;14.16;78.89
52249;BME280;38541;48.130;8.378;2023-05-09T05:31:10;92883.50;;;14.21;78.86
52249;BME280;38541;48.130;8.378;2023-05-09T05:33:37;92889.03;;;14.24;79.07
52249;BME280;38541;48.130;8.378;2023-05-09T05:36:04;92880.28;;;14.29;78.72
52249;BME280;38541;48.130;8.378;2023-05-09T05:38:31;92881.03;;;14.30;78.89
52249;BME280;38541;48.130;8.378;2023-05-09T05:40:58;92883.19;;;14.27;78.91
52249;BME280;38541;48.130;8.378;2023-05-09T05:43:26;92884.72;;;14.34;79.22
52249;BME280;38541;48.130;8.378;2023-05-09T05:45:53;92888.81;;;14.45;79.09
52249;BME280;38541;48.130;8.378;2023-05-09T05:48:22;92885.31;;;14.50;78.39
52249;BME280;38541;48.130;8.378;2023-05-09T05:50:49;92885.38;;;14.45;78.70
52249;BME280;38541;48.130;8.378;2023-05-09T05:53:20;92882.59;;;14.55;78.40
52249;BME280;38541;48.130;8.378;2023-05-09T05:55:48;92881.50;;;14.61;78.13
52249;BME280;38541;48.130;8.378;2023-05-09T05:58:14;92884.41;;;14.60;77.92
52249;BME280;38541;48.130;8.378;2023-05-09T06:00:41;92872.19;;;14.64;77.31
52249;BME280;38541;48.130;8.378;2023-05-09T06:03:07;92869.56;;;14.64;77.54
52249;BME280;38541;48.130;8.378;2023-05-09T06:05:45;92874.94;;;14.78;77.39
52249;BME280;38541;48.130;8.378;2023-05-09T06:08:12;92860.59;;;14.84;77.41
52249;BME280;38541;48.130;8.378;2023-05-09T06:10:38;92859.59;;;14.99;77.56
52249;BME280;38541;48.130;8.378;2023-05-09T06:13:05;92859.09;;;14.97;77.26
52249;BME280;38541;48.130;8.378;2023-05-09T06:15:33;92851.16;;;14.97;77.53
52249;BME280;38541;48.130;8.378;2023-05-09T06:17:59;92844.31;;;14.96;77.82
52249;BME280;38541;48.130;8.378;2023-05-09T06:20:27;92853.31;;;14.95;77.99
52249;BME280;38541;48.130;8.378;2023-05-09T06:22:53;92851.66;;;14.99;77.69
52249;BME280;38541;48.130;8.378;2023-05-09T06:25:20;92851.97;;;14.97;78.05
52249;BME280;38541;48.130;8.378;2023-05-09T06:27:46;92861.75;;;14.97;78.22
52249;BME280;38541;48.130;8.378;2023-05-09T06:30:13;92860.69;;;14.98;78.00
52249;BME280;38541;48.130;8.378;2023-05-09T06:32:52;92857.44;;;15.01;77.04
52249;BME280;38541;48.130;8.378;2023-05-09T06:35:19;92853.94;;;15.06;76.67
52249;BME280;38541;48.130;8.378;2023-05-09T06:37:45;92856.88;;;15.04;76.13
52249;BME280;38541;48.130;8.378;2023-05-09T06:40:14;92859.38;;;15.15;76.38
52249;BME280;38541;48.130;8.378;2023-05-09T06:42:41;92850.00;;;15.22;76.16
52249;BME280;38541;48.130;8.378;2023-05-09T06:45:08;92847.59;;;15.26;76.10
52249;BME280;38541;48.130;8.378;2023-05-09T06:47:34;92844.00;;;15.36;75.91
52249;BME280;38541;48.130;8.378;2023-05-09T06:50:01;92841.66;;;15.48;74.81
52249;BME280;38541;48.130;8.378;2023-05-09T06:52:27;92845.69;;;15.46;74.73
52249;BME280;38541;48.130;8.378;2023-05-09T06:54:54;92845.25;;;15.38;75.23
52249;BME280;38541;48.130;8.378;2023-05-09T06:57:20;92839.97;;;15.38;75.44
52249;BME280;38541;48.130;8.378;2023-05-09T06:59:47;92839.31;;;15.47;75.01
52249;BME280;38541;48.130;8.378;2023-05-09T07:02:13;92832.38;;;15.51;75.00
52249;BME280;38541;48.130;8.378;2023-05-09T07:04:40;92834.16;;;15.55;74.46
52249;BME280;38541;48.130;8.378;2023-05-09T07:07:06;92826.47;;;15.54;73.41
52249;BME280;38541;48.130;8.378;2023-05-09T07:09:33;92830.53;;;15.65;73.20
52249;BME280;38541;48.130;8.378;2023-05-09T07:12:00;92815.91;;;15.68;72.72
52249;BME280;38541;48.130;8.378;2023-05-09T07:14:27;92814.44;;;15.76;72.80
52249;BME280;38541;48.130;8.378;2023-05-09T07:16:53;92808.53;;;15.98;71.95
52249;BME280;38541;48.130;8.378;2023-05-09T07:19:35;92806.38;;;16.14;72.93
52249;BME280;38541;48.130;8.378;2023-05-09T07:22:02;92805.88;;;16.26;71.73
52249;BME280;38541;48.130;8.378;2023-05-09T07:24:28;92801.44;;;16.49;71.89
52249;BME280;38541;48.130;8.378;2023-05-09T07:26:54;92800.44;;;16.59;70.34
52249;BME280;38541;48.130;8.378;2023-05-09T07:29:21;92801.38;;;16.77;70.03
52249;BME280;38541;48.130;8.378;2023-05-09T07:31:47;92791.16;;;16.85;69.07
52249;BME280;38541;48.130;8.378;2023-05-09T07:34:15;92787.84;;;16.65;69.01
52249;BME280;38541;48.130;8.378;2023-05-09T07:36:42;92789.84;;;16.45;69.76
52249;BME280;38541;48.130;8.378;2023-05-09T07:39:08;92786.13;;;16.46;70.30
52249;BME280;38541;48.130;8.378;2023-05-09T07:41:35;92783.34;;;16.51;70.36
52249;BME280;38541;48.130;8.378;2023-05-09T07:44:02;92783.88;;;16.39;67.92
52249;BME280;38541;48.130;8.378;2023-05-09T07:46:28;92787.13;;;16.36;68.98
52249;BME280;38541;48.130;8.378;2023-05-09T07:48:55;92780.50;;;16.62;68.23
52249;BME280;38541;48.130;8.378;2023-05-09T07:51:21;92779.31;;;16.91;69.15
52249;BME280;38541;48.130;8.378;2023-05-09T07:53:48;92774.97;;;16.95;67.95
52249;BME280;38541;48.130;8.378;2023-05-09T07:56:14;92779.69;;;16.98;67.43
52249;BME280;38541;48.130;8.378;2023-05-09T07:58:41;92767.44;;;17.02;67.11
52249;BME280;38541;48.130;8.378;2023-05-09T08:01:08;92767.84;;;17.18;67.61
52249;BME280;38541;48.130;8.378;2023-05-09T08:03:34;92766.63;;;17.02;67.01
52249;BME280;38541;48.130;8.378;2023-05-09T08:06:01;92760.38;;;16.83;65.27
52249;BME280;38541;48.130;8.378;2023-05-09T08:08:27;92756.09;;;16.96;66.32
52249;BME280;38541;48.130;8.378;2023-05-09T08:10:54;92752.66;;;16.96;65.43
52249;BME280;38541;48.130;8.378;2023-05-09T08:13:21;92753.16;;;16.98;66.18
52249;BME280;38541;48.130;8.378;2023-05-09T08:15:48;92747.28;;;17.01;66.58
52249;BME280;38541;48.130;8.378;2023-05-09T08:18:14;92742.97;;;17.14;66.82
52249;BME280;38541;48.130;8.378;2023-05-09T08:20:41;92737.47;;;17.33;66.58
52249;BME280;38541;48.130;8.378;2023-05-09T08:23:07;92739.72;;;17.49;66.02
52249;BME280;38541;48.130;8.378;2023-05-09T08:25:34;92731.50;;;17.59;66.31
52249;BME280;38541;48.130;8.378;2023-05-09T08:28:00;92729.63;;;17.60;64.68
52249;BME280;38541;48.130;8.378;2023-05-09T08:30:27;92721.38;;;17.61;64.40
52249;BME280;38541;48.130;8.378;2023-05-09T08:32:54;92719.97;;;17.64;65.52
52249;BME280;38541;48.130;8.378;2023-05-09T08:35:22;92716.81;;;17.62;64.37
52249;BME280;38541;48.130;8.378;2023-05-09T08:37:48;92707.00;;;17.62;63.91
52249;BME280;38541;48.130;8.378;2023-05-09T08:40:15;92710.84;;;17.47;65.04
52249;BME280;38541;48.130;8.378;2023-05-09T08:42:43;92710.03;;;17.47;63.49
52249;BME280;38541;48.130;8.378;2023-05-09T08:45:12;92699.16;;;17.57;65.65
52249;BME280;38541;48.130;8.378;2023-05-09T08:47:41;92701.50;;;17.59;65.54
52249;BME280;38541;48.130;8.378;2023-05-09T08:50:08;92700.53;;;17.54;63.59
52249;BME280;38541;48.130;8.378;2023-05-09T08:52:35;92695.75;;;17.65;65.28
52249;BME280;38541;48.130;8.378;2023-05-09T08:55:02;92694.28;;;18.00;63.83
52249;BME280;38541;48.130;8.378;2023-05-09T08:57:31;92692.78;;;18.16;62.27
52249;BME280;38541;48.130;8.378;2023-05-09T09:00:00;92694.22;;;18.31;62.39
52249;BME280;38541;48.130;8.378;2023-05-09T09:02:27;92684.84;;;18.34;61.37
52249;BME280;38541;48.130;8.378;2023-05-09T09:04:54;92688.75;;;18.63;62.36
52249;BME280;38541;48.130;8.378;2023-05-09T09:07:22;92693.75;;;18.91;60.90
52249;BME280;38541;48.130;8.378;2023-05-09T09:09:49;92684.34;;;19.11;61.13
52249;BME280;38541;48.130;8.378;2023-05-09T09:12:17;92681.75;;;19.41;59.49
52249;BME280;38541;48.130;8.378;2023-05-09T09:14:48;92675.13;;;19.56;56.41
52249;BME280;38541;48.130;8.378;2023-05-09T09:17:20;92676.81;;;19.61;58.41
52249;BME280;38541;48.130;8.378;2023-05-09T09:19:49;92680.09;;;19.66;57.15
52249;BME280;38541;48.130;8.378;2023-05-09T09:22:18;92672.00;;;19.54;57.79
52249;BME280;38541;48.130;8.378;2023-05-09T09:24:46;92670.53;;;19.65;57.38
52249;BME280;38541;48.130;8.378;2023-05-09T09:27:12;92668.16;;;19.73;57.04
52249;BME280;38541;48.130;8.378;2023-05-09T09:29:39;92662.22;;;19.67;56.73
52249;BME280;38541;48.130;8.378;2023-05-09T09:32:05;92656.69;;;19.42;54.85
52249;BME280;38541;48.130;8.378;2023-05-09T09:34:32;92652.28;;;19.46;58.21
52249;BME280;38541;48.130;8.378;2023-05-09T09:36:59;92652.56;;;19.53;56.61
52249;BME280;38541;48.130;8.378;2023-05-09T09:39:25;92655.34;;;19.57;57.04
52249;BME280;38541;48.130;8.378;2023-05-09T09:41:52;92650.31;;;19.64;57.24
52249;BME280;38541;48.130;8.378;2023-05-09T09:44:20;92645.75;;;19.65;56.82
52249;BME280;38541;48.130;8.378;2023-05-09T09:46:54;92642.22;;;19.52;58.07
52249;BME280;38541;48.130;8.378;2023-05-09T09:49:22;92637.81;;;19.56;57.52
52249;BME280;38541;48.130;8.378;2023-05-09T09:51:53;92635.91;;;19.65;57.45
52249;BME280;38541;48.130;8.378;2023-05-09T09:54:20;92624.94;;;19.88;57.33
52249;BME280;38541;48.130;8.378;2023-05-09T09:56:48;92621.41;;;19.75;55.80
52249;BME280;38541;48.130;8.378;2023-05-09T09:59:17;92620.34;;;19.98;55.86
52249;BME280;38541;48.130;8.378;2023-05-09T10:04:25;92625.19;;;20.26;56.48
52249;BME280;38541;48.130;8.378;2023-05-09T10:06:56;92621.19;;;20.19;56.60
52249;BME280;38541;48.130;8.378;2023-05-09T10:09:24;92612.19;;;20.45;54.86
52249;BME280;38541;48.130;8.378;2023-05-09T10:11:53;92619.38;;;20.45;55.15
52249;BME280;38541;48.130;8.378;2023-05-09T10:14:24;92616.47;;;20.59;54.48
52249;BME280;38541;48.130;8.378;2023-05-09T10:16:54;92609.72;;;20.40;55.14
52249;BME280;38541;48.130;8.378;2023-05-09T10:19:24;92604.25;;;20.70;53.43
52249;BME280;38541;48.130;8.378;2023-05-09T10:21:54;92596.69;;;20.93;53.84
52249;BME280;38541;48.130;8.378;2023-05-09T10:24:27;92588.16;;;20.79;51.46
52249;BME280;38541;48.130;8.378;2023-05-09T10:26:58;92583.47;;;20.76;53.38
52249;BME280;38541;48.130;8.378;2023-05-09T10:29:33;92582.81;;;20.79;53.06
52249;BME280;38541;48.130;8.378;2023-05-09T10:32:02;92583.88;;;20.87;54.31
52249;BME280;38541;48.130;8.378;2023-05-09T10:34:33;92578.00;;;20.93;55.01
52249;BME280;38541;48.130;8.378;2023-05-09T10:37:01;92573.00;;;21.04;54.56
52249;BME280;38541;48.130;8.378;2023-05-09T10:39:28;92571.06;;;20.80;52.99
52249;BME280;38541;48.130;8.378;2023-05-09T10:41:57;92570.72;;;20.81;55.61
52249;BME280;38541;48.130;8.378;2023-05-09T10:44:24;92564.34;;;20.74;52.82
52249;BME280;38541;48.130;8.378;2023-05-09T10:46:51;92569.81;;;20.77;55.04
52249;BME280;38541;48.130;8.378;2023-05-09T10:49:19;92568.28;;;20.55;52.27
52249;BME280;38541;48.130;8.378;2023-05-09T10:51:48;92568.75;;;20.36;53.54
52249;BME280;38541;48.130;8.378;2023-05-09T10:54:35;92559.81;;;20.19;55.02
52249;BME280;38541;48.130;8.378;2023-05-09T10:57:02;92554.53;;;20.32;54.83
52249;BME280;38541;48.130;8.378;2023-05-09T10:59:32;92558.81;;;20.45;53.28
52249;BME280;38541;48.130;8.378;2023-05-09T11:02:00;92549.69;;;20.46;53.67
52249;BME280;38541;48.130;8.378;2023-05-09T11:04:29;92541.25;;;20.44;54.71
52249;BME280;38541;48.130;8.378;2023-05-09T11:06:56;92535.44;;;20.42;54.65
52249;BME280;38541;48.130;8.378;2023-05-09T11:09:34;92533.28;;;20.57;55.62
52249;BME280;38541;48.130;8.378;2023-05-09T11:22:15;92516.66;;;20.85;55.55
52249;BME280;38541;48.130;8.378;2023-05-09T11:24:44;92513.56;;;20.95;53.98
52249;BME280;38541;48.130;8.378;2023-05-09T11:27:16;92511.88;;;21.03;51.10
52249;BME280;38541;48.130;8.378;2023-05-09T11:29:55;92509.66;;;21.17;52.66
52249;BME280;38541;48.130;8.378;2023-05-09T11:32:33;92498.88;;;21.14;52.56
52249;BME280;38541;48.130;8.378;2023-05-09T11:35:16;92498.22;;;21.04;52.28
52249;BME280;38541;48.130;8.378;2023-05-09T11:40:19;92485.69;;;20.71;53.52
52249;BME280;38541;48.130;8.378;2023-05-09T11:42:48;92483.25;;;20.78;53.52
52249;BME280;38541;48.130;8.378;2023-05-09T11:45:16;92487.25;;;20.72;54.06
52249;BME280;38541;48.130;8.378;2023-05-09T11:47:44;92477.66;;;20.71;52.41
52249;BME280;38541;48.130;8.378;2023-05-09T11:50:12;92473.81;;;20.81;50.76
52249;BME280;38541;48.130;8.378;2023-05-09T11:52:39;92468.16;;;20.95;50.64
52249;BME280;38541;48.130;8.378;2023-05-09T11:57:43;92461.59;;;20.80;52.01
52249;BME280;38541;48.130;8.378;2023-05-09T12:00:10;92457.09;;;20.59;51.40
52249;BME280;38541;48.130;8.378;2023-05-09T12:02:38;92450.63;;;20.60;51.37
52249;BME280;38541;48.130;8.378;2023-05-09T12:05:18;92448.41;;;20.50;53.60
52249;BME280;38541;48.130;8.378;2023-05-09T12:07:45;92438.06;;;20.48;53.88
52249;BME280;38541;48.130;8.378;2023-05-09T12:10:18;92437.94;;;20.57;53.27
52249;BME280;38541;48.130;8.378;2023-05-09T12:12:46;92432.16;;;20.55;53.37
52249;BME280;38541;48.130;8.378;2023-05-09T12:15:14;92428.72;;;20.67;53.83
52249;BME280;38541;48.130;8.378;2023-05-09T12:17:44;92430.63;;;20.79;52.33
52249;BME280;38541;48.130;8.378;2023-05-09T12:20:13;92428.63;;;21.01;52.16
52249;BME280;38541;48.130;8.378;2023-05-09T12:22:43;92425.19;;;21.13;49.95
52249;BME280;38541;48.130;8.378;2023-05-09T12:25:10;92417.06;;;21.09;49.69
52249;BME280;38541;48.130;8.378;2023-05-09T12:27:38;92412.84;;;21.08;51.74
52249;BME280;38541;48.130;8.378;2023-05-09T12:30:07;92413.19;;;20.94;50.23
52249;BME280;38541;48.130;8.378;2023-05-09T12:32:36;92415.84;;;21.06;49.78
52249;BME280;38541;48.130;8.378;2023-05-09T12:35:08;92409.63;;;21.02;50.88
52249;BME280;38541;48.130;8.378;2023-05-09T12:37:36;92404.97;;;20.99;49.91
52249;BME280;38541;48.130;8.378;2023-05-09T12:40:12;92409.81;;;21.09;51.09
52249;BME280;38541;48.130;8.378;2023-05-09T12:42:44;92403.34;;;21.23;50.98
52249;BME280;38541;48.130;8.378;2023-05-09T12:45:11;92406.03;;;21.23;50.95
52249;BME280;38541;48.130;8.378;2023-05-09T12:47:38;92399.91;;;21.22;50.84
52249;BME280;38541;48.130;8.378;2023-05-09T12:50:09;92397.81;;;21.16;51.17
52249;BME280;38541;48.130;8.378;2023-05-09T12:52:40;92399.94;;;21.10;51.14
52249;BME280;38541;48.130;8.378;2023-05-09T12:55:28;92394.22;;;21.24;49.16
52249;BME280;38541;48.130;8.378;2023-05-09T12:57:59;92388.28;;;21.43;49.43
52249;BME280;38541;48.130;8.378;2023-05-09T13:00:26;92392.59;;;21.48;50.39
52249;BME280;38541;48.130;8.378;2023-05-09T13:02:53;92390.22;;;21.59;51.00
52249;BME280;38541;48.130;8.378;2023-05-09T13:05:22;92386.97;;;21.78;50.61
52249;BME280;38541;48.130;8.378;2023-05-09T13:07:50;92380.66;;;21.86;49.78
52249;BME280;38541;48.130;8.378;2023-05-09T13:10:24;92380.44;;;21.91;48.80
52249;BME280;38541;48.130;8.378;2023-05-09T13:12:52;92376.59;;;21.76;48.06
52249;BME280;38541;48.130;8.378;2023-05-09T13:15:20;92361.72;;;21.91;48.92
52249;BME280;38541;48.130;8.378;2023-05-09T13:17:52;92360.88;;;22.03;48.42
52249;BME280;38541;48.130;8.378;2023-05-09T13:20:19;92365.00;;;22.01;48.40
52249;BME280;38541;48.130;8.378;2023-05-09T13:22:46;92361.19;;;22.02;47.55
52249;BME280;38541;48.130;8.378;2023-05-09T13:25:12;92356.38;;;22.07;48.16
52249;BME280;38541;48.130;8.378;2023-05-09T13:27:39;92351.56;;;22.13;49.27
52249;BME280;38541;48.130;8.378;2023-05-09T13:30:06;92341.28;;;21.99;46.58
52249;BME280;38541;48.130;8.378;2023-05-09T13:32:33;92333.00;;;22.04;47.43